Time;durP1;ratioP1;P1;durP2;ratioP2;P2;SDS_P1;SDS_P2;PMS_P1;PMS_P2;Temp;Humidity;BMP_temperature;BMP_pressure;BME280_temperature;BME280_humidity;BME280_pressure;Samples;Min_cycle;Max_cycle;Signal;HPM_P1;HPM_P2
2022/09/03 00:01:09;;;;;;;12.27;9.85;;;29.60;99.90;;;;;;5086727;28;20210;-91
2022/09/03 00:03:47;;;;;;;10.70;9.60;;;29.30;99.90;;;;;;5095992;28;20216;-93
2022/09/03 00:06:25;;;;;;;11.20;10.10;;;29.30;99.90;;;;;;5104689;28;20210;-93
2022/09/03 00:09:04;;;;;;;10.73;9.25;;;29.40;99.90;;;;;;5100721;28;20202;-93
2022/09/03 00:11:51;;;;;;;10.57;9.48;;;29.30;99.90;;;;;;5098913;28;20261;-94
2022/09/03 00:17:27;;;;;;;10.48;9.43;;;29.30;99.90;;;;;;5109447;28;20195;-94
2022/09/03 00:23:09;;;;;;;12.60;9.68;;;29.30;99.90;;;;;;5105054;28;20210;-93
2022/09/03 00:25:45;;;;;;;9.75;8.77;;;29.60;99.90;;;;;;5097257;28;20207;-93
2022/09/03 00:28:23;;;;;;;10.48;9.48;;;29.20;99.90;;;;;;5103438;28;20214;-91
2022/09/03 00:31:05;;;;;;;10.82;9.82;;;28.80;99.90;;;;;;5103596;28;20207;-93
2022/09/03 00:33:42;;;;;;;11.15;10.15;;;28.90;99.90;;;;;;5101489;28;20248;-93
2022/09/03 00:36:21;;;;;;;11.32;10.23;;;29.00;99.90;;;;;;5107556;28;20209;-93
2022/09/03 00:38:58;;;;;;;13.38;10.90;;;29.00;99.90;;;;;;5097222;28;20278;-93
2022/09/03 00:41:40;;;;;;;11.45;10.05;;;28.90;99.90;;;;;;5099700;28;20241;-93
2022/09/03 00:44:44;;;;;;;10.80;9.80;;;28.90;99.90;;;;;;5102638;28;20230;-93
2022/09/03 00:55:47;;;;;;;12.65;11.30;;;28.80;99.90;;;;;;5167697;22;21337;-93
2022/09/03 01:02:13;;;;;;;11.43;10.25;;;28.40;99.90;;;;;;5072223;28;20253;-93
2022/09/03 01:10:43;;;;;;;11.63;10.50;;;28.20;99.90;;;;;;5067766;28;20197;-93
2022/09/03 01:13:19;;;;;;;12.57;11.33;;;28.00;99.90;;;;;;5067726;28;20262;-93
2022/09/03 01:16:14;;;;;;;12.70;10.73;;;27.90;99.90;;;;;;5067333;28;20208;-93
2022/09/03 01:18:55;;;;;;;14.13;11.00;;;27.80;99.90;;;;;;5068578;28;20204;-93
2022/09/03 01:21:57;;;;;;;12.97;11.47;;;27.80;99.90;;;;;;5067739;28;20216;-94
2022/09/03 01:31:17;;;;;;;14.20;11.77;;;27.60;99.90;;;;;;5069171;28;20216;-92
2022/09/03 01:34:01;;;;;;;11.93;10.60;;;27.40;99.90;;;;;;5067422;28;20236;-93
2022/09/03 01:36:41;;;;;;;12.77;11.47;;;27.10;99.90;;;;;;5071239;28;20207;-92
2022/09/03 01:39:25;;;;;;;12.00;10.43;;;27.00;99.90;;;;;;5065089;28;20299;-93
2022/09/03 01:42:17;;;;;;;11.90;10.80;;;26.80;99.90;;;;;;5059121;28;20215;-92
2022/09/03 01:45:23;;;;;;;11.63;9.90;;;26.60;99.90;;;;;;5525440;22;20236;-94
2022/09/03 01:52:10;;;;;;;12.93;11.47;;;26.30;99.90;;;;;;5072751;28;20204;-93
2022/09/03 02:00:12;;;;;;;12.53;11.33;;;25.70;99.90;;;;;;5086895;28;20284;-94
2022/09/03 02:02:49;;;;;;;13.63;11.40;;;25.50;99.90;;;;;;5091742;28;20200;-94
2022/09/03 02:08:16;;;;;;;15.80;12.90;;;25.20;99.90;;;;;;5544100;22;20238;-94
2022/09/03 02:17:17;;;;;;;12.87;11.57;;;24.90;99.90;;;;;;5056065;28;20256;-93
2022/09/03 02:26:06;;;;;;;14.47;11.73;;;24.50;99.90;;;;;;5074162;28;20204;-94
2022/09/03 02:28:41;;;;;;;14.00;11.50;;;24.40;99.90;;;;;;5071276;28;20220;-94
2022/09/03 02:31:16;;;;;;;13.70;11.70;;;24.30;99.90;;;;;;5071713;28;20207;-94
2022/09/03 02:33:50;;;;;;;13.33;11.93;;;24.20;99.90;;;;;;5066798;28;20242;-94
2022/09/03 02:36:27;;;;;;;12.90;11.57;;;24.10;99.90;;;;;;5075326;28;20192;-95
2022/09/03 02:39:14;;;;;;;17.00;12.57;;;24.00;99.90;;;;;;5072027;28;20215;-95
2022/09/03 02:42:03;;;;;;;13.20;11.90;;;23.90;99.90;;;;;;5068894;28;20235;-94
2022/09/03 02:44:42;;;;;;;14.50;12.20;;;23.80;99.90;;;;;;5073637;28;20208;-95
2022/09/03 02:47:13;;;;;;;12.90;11.60;;;23.70;99.90;;;;;;5066462;28;20211;-94
2022/09/03 02:49:51;;;;;;;13.20;11.77;;;23.70;99.90;;;;;;5058688;28;20189;-93
2022/09/03 02:52:26;;;;;;;14.27;12.30;;;23.50;99.90;;;;;;5074140;28;20254;-93
2022/09/03 02:55:01;;;;;;;13.13;11.90;;;23.40;99.90;;;;;;5069305;28;20200;-94
2022/09/03 02:57:32;;;;;;;14.10;12.60;;;23.30;99.90;;;;;;5064836;28;20212;-94
2022/09/03 03:00:06;;;;;;;13.47;11.47;;;23.30;99.90;;;;;;5052684;28;20212;-94
2022/09/03 03:02:51;;;;;;;16.17;12.60;;;23.10;99.90;;;;;;5053873;28;20211;-94
2022/09/03 03:05:36;;;;;;;13.13;11.83;;;23.00;99.90;;;;;;5066054;28;20224;-94
2022/09/03 03:08:27;;;;;;;18.33;11.70;;;22.90;99.90;;;;;;5069396;28;20234;-94
2022/09/03 03:11:00;;;;;;;15.60;11.90;;;22.90;99.90;;;;;;5070968;28;20212;-94
2022/09/03 03:13:35;;;;;;;14.97;12.30;;;22.80;99.90;;;;;;5070005;28;20330;-94
2022/09/03 03:16:09;;;;;;;13.90;12.50;;;22.70;99.90;;;;;;5071678;28;20218;-94
2022/09/03 03:18:45;;;;;;;13.23;11.87;;;22.70;99.90;;;;;;5072046;28;20203;-94
2022/09/03 03:21:23;;;;;;;15.53;12.77;;;22.60;99.90;;;;;;5069541;28;20220;-95
2022/09/03 03:23:59;;;;;;;14.60;12.00;;;22.60;99.90;;;;;;5071152;28;20234;-94
2022/09/03 03:26:43;;;;;;;12.90;11.57;;;22.50;99.90;;;;;;5074783;28;20235;-95
2022/09/03 03:29:37;;;;;;;13.43;12.03;;;22.50;99.90;;;;;;5074032;28;20232;-94
2022/09/03 03:32:07;;;;;;;13.07;11.83;;;22.40;99.90;;;;;;5066914;28;20207;-94
2022/09/03 03:34:38;;;;;;;15.90;12.00;;;22.40;99.90;;;;;;5059548;28;20254;-94
2022/09/03 03:37:12;;;;;;;15.30;13.37;;;22.30;99.90;;;;;;5065362;28;20219;-94
2022/09/03 03:39:48;;;;;;;16.27;12.70;;;22.20;99.90;;;;;;5060492;28;20242;-94
2022/09/03 03:42:20;;;;;;;16.70;13.07;;;22.10;99.90;;;;;;5067352;28;20212;-95
2022/09/03 03:45:05;;;;;;;15.97;12.97;;;22.10;99.90;;;;;;5067508;28;20213;-94
2022/09/03 03:50:23;;;;;;;17.47;12.40;;;22.00;99.90;;;;;;5071687;28;20212;-94
2022/09/03 03:53:18;;;;;;;14.10;12.30;;;21.90;99.90;;;;;;5069513;28;20216;-94
2022/09/03 03:56:09;;;;;;;14.10;12.13;;;21.80;99.90;;;;;;5064864;28;20200;-92
2022/09/03 03:58:50;;;;;;;15.90;12.80;;;21.80;99.90;;;;;;5069575;28;20235;-93
2022/09/03 04:01:25;;;;;;;16.10;12.50;;;21.70;99.90;;;;;;5061382;28;20255;-94
2022/09/03 04:03:57;;;;;;;13.77;12.37;;;21.70;99.90;;;;;;5056173;28;20667;-97
2022/09/03 04:06:29;;;;;;;13.03;11.67;;;21.70;99.90;;;;;;5056110;28;20234;-94
2022/09/03 04:09:03;;;;;;;14.10;12.60;;;21.60;99.90;;;;;;5056433;28;20208;-94
2022/09/03 04:11:34;;;;;;;13.93;12.50;;;21.60;99.90;;;;;;5055547;28;20208;-94
2022/09/03 04:14:07;;;;;;;13.27;11.97;;;21.60;99.90;;;;;;5061283;28;20236;-94
2022/09/03 04:16:41;;;;;;;12.13;10.83;;;21.60;99.90;;;;;;5050858;28;20208;-94
2022/09/03 04:19:12;;;;;;;16.23;10.90;;;21.60;99.90;;;;;;5019342;28;20217;-94
2022/09/03 04:21:43;;;;;;;12.63;10.87;;;21.60;99.90;;;;;;5035234;28;20205;-94
2022/09/03 04:24:15;;;;;;;12.27;9.53;;;21.60;99.90;;;;;;5035987;28;20259;-94
2022/09/03 04:26:49;;;;;;;10.57;9.53;;;21.60;99.90;;;;;;5036400;28;20212;-94
2022/09/03 04:29:20;;;;;;;14.00;10.57;;;21.50;99.90;;;;;;5047483;28;20204;-94
2022/09/03 04:34:39;;;;;;;11.10;9.53;;;21.40;99.90;;;;;;5036188;28;20239;-95
2022/09/03 04:37:10;;;;;;;10.80;9.67;;;21.40;99.90;;;;;;5036236;28;20212;-94
2022/09/03 04:39:45;;;;;;;11.73;9.33;;;21.30;99.90;;;;;;5019082;28;20627;-94
2022/09/03 04:42:16;;;;;;;10.63;9.53;;;21.30;99.90;;;;;;5035318;28;20560;-90
2022/09/03 04:44:47;;;;;;;10.37;9.00;;;21.30;99.90;;;;;;5046954;28;20212;-92
2022/09/03 04:47:19;;;;;;;10.17;8.20;;;21.20;99.90;;;;;;5019001;28;20205;-94
2022/09/03 04:49:52;;;;;;;10.27;8.23;;;21.10;99.90;;;;;;5036248;28;20232;-94
2022/09/03 04:52:24;;;;;;;11.07;7.57;;;21.10;99.90;;;;;;5035431;28;20209;-92
2022/09/03 04:54:57;;;;;;;9.77;7.43;;;21.10;99.90;;;;;;5035794;28;20244;-93
2022/09/03 04:57:33;;;;;;;10.60;7.20;;;21.00;99.90;;;;;;5042288;28;20231;-92
2022/09/03 05:00:05;;;;;;;7.30;5.93;;;20.90;99.90;;;;;;5042716;28;20687;-92
2022/09/03 05:02:36;;;;;;;6.57;5.97;;;20.80;99.90;;;;;;5041702;28;20205;-92
2022/09/03 05:05:07;;;;;;;9.47;5.30;;;20.70;99.90;;;;;;5041369;28;20267;-92
2022/09/03 05:07:39;;;;;;;5.63;5.03;;;20.60;99.90;;;;;;5044929;28;20653;-92
2022/09/03 05:10:19;;;;;;;5.13;4.63;;;20.50;99.90;;;;;;5043382;28;20205;-92
2022/09/03 05:12:59;;;;;;;8.77;4.23;;;20.30;99.90;;;;;;5039129;28;20295;-92
2022/09/03 05:15:30;;;;;;;5.40;4.70;;;20.30;99.90;;;;;;5045132;28;20259;-91
2022/09/03 05:18:03;;;;;;;4.27;3.87;;;20.20;99.90;;;;;;5046834;28;20215;-94
2022/09/03 05:20:33;;;;;;;7.37;4.20;;;20.20;99.90;;;;;;5039466;28;20296;-94
2022/09/03 05:23:06;;;;;;;4.63;3.67;;;20.10;99.90;;;;;;5039420;28;20274;-94
2022/09/03 05:25:39;;;;;;;3.93;3.53;;;20.10;99.90;;;;;;5045892;28;20197;-93
2022/09/03 05:28:10;;;;;;;4.23;3.40;;;20.00;99.90;;;;;;5040749;28;20630;-92
2022/09/03 05:30:41;;;;;;;4.40;3.67;;;20.00;99.90;;;;;;5043714;28;20595;-92
2022/09/03 05:33:14;;;;;;;4.83;3.20;;;19.90;99.90;;;;;;5043487;28;20209;-91
2022/09/03 05:35:45;;;;;;;8.93;3.60;;;19.90;99.90;;;;;;5039081;28;20260;-91
2022/09/03 05:38:16;;;;;;;3.97;2.97;;;19.80;99.90;;;;;;5040988;28;20676;-92
2022/09/03 05:40:50;;;;;;;4.83;3.37;;;19.70;99.90;;;;;;5041151;28;20205;-94
2022/09/03 05:43:21;;;;;;;3.30;3.00;;;19.70;99.90;;;;;;5039143;28;20217;-92
2022/09/03 05:45:53;;;;;;;5.63;2.70;;;19.60;99.90;;;;;;5057206;28;20270;-92
2022/09/03 05:48:24;;;;;;;3.73;2.57;;;19.50;99.90;;;;;;5060444;28;20204;-92
2022/09/03 05:51:01;;;;;;;2.63;2.13;;;19.30;99.90;;;;;;5058894;28;20215;-92
2022/09/03 05:56:32;;;;;;;4.07;1.80;;;19.20;99.90;;;;;;5057411;28;20266;-93
2022/09/03 05:59:06;;;;;;;3.77;1.83;;;19.00;99.90;;;;;;5059004;28;20250;-92
2022/09/03 06:01:40;;;;;;;1.87;1.70;;;19.00;99.90;;;;;;5060722;28;20626;-92
2022/09/03 06:04:20;;;;;;;1.97;1.70;;;18.90;99.90;;;;;;5059912;28;20665;-92
2022/09/03 06:06:52;;;;;;;2.37;1.77;;;18.90;99.90;;;;;;5060303;28;20204;-93
2022/09/03 06:09:24;;;;;;;2.60;1.60;;;18.70;99.90;;;;;;5060112;28;20593;-92
2022/09/03 06:11:57;;;;;;;3.03;1.60;;;18.50;99.90;;;;;;5041987;28;20222;-93
2022/09/03 06:14:33;;;;;;;2.33;1.43;;;18.50;99.90;;;;;;5055276;28;20236;-93
2022/09/03 06:17:03;;;;;;;1.73;1.63;;;18.40;99.90;;;;;;5039775;28;20292;-93
2022/09/03 06:19:34;;;;;;;3.60;1.70;;;18.30;99.90;;;;;;5039335;28;20274;-92
2022/09/03 06:22:06;;;;;;;3.20;1.63;;;18.10;99.90;;;;;;5039761;28;20252;-93
2022/09/03 06:24:38;;;;;;;1.90;1.40;;;18.00;99.90;;;;;;5047806;28;20221;-92
2022/09/03 06:27:13;;;;;;;1.83;1.70;;;17.80;99.90;;;;;;5128104;22;20252;-91
2022/09/03 06:29:47;;;;;;;1.93;1.63;;;17.60;99.90;;;;;;5062757;28;20577;-93
2022/09/03 06:32:18;;;;;;;2.80;1.77;;;17.60;99.90;;;;;;5068629;28;20208;-92
2022/09/03 06:34:54;;;;;;;3.00;1.70;;;17.60;99.90;;;;;;5063833;28;20302;-92
2022/09/03 06:37:41;;;;;;;2.57;1.83;;;17.40;99.90;;;;;;5045939;28;20634;-92
2022/09/03 06:40:13;;;;;;;2.07;1.77;;;17.20;99.90;;;;;;5059261;28;20270;-92
2022/09/03 06:42:46;;;;;;;2.43;1.60;;;17.00;99.90;;;;;;5060900;28;20192;-92
2022/09/03 06:45:18;;;;;;;2.10;1.87;;;16.70;99.90;;;;;;5061984;28;20200;-91
2022/09/03 06:47:49;;;;;;;2.07;1.70;;;16.80;99.90;;;;;;5058477;28;20216;-92
2022/09/03 06:50:20;;;;;;;2.30;1.83;;;16.80;99.90;;;;;;5064189;28;20216;-92
2022/09/03 06:52:54;;;;;;;1.50;1.40;;;16.80;99.90;;;;;;5075565;28;20235;-94
2022/09/03 06:55:25;;;;;;;1.73;1.43;;;16.80;99.90;;;;;;5075329;28;20723;-93
2022/09/03 06:58:01;;;;;;;1.97;1.80;;;16.80;99.90;;;;;;5072324;28;20200;-91
2022/09/03 07:00:33;;;;;;;3.40;1.80;;;16.80;99.90;;;;;;5070541;28;20273;-92
2022/09/03 07:03:04;;;;;;;2.20;1.60;;;16.70;99.90;;;;;;5071329;28;20208;-92
2022/09/03 07:05:36;;;;;;;2.30;1.40;;;16.70;99.90;;;;;;5072153;28;20204;-92
2022/09/03 07:08:09;;;;;;;2.23;1.60;;;16.60;99.90;;;;;;5070957;28;20204;-91
2022/09/03 07:10:42;;;;;;;1.67;1.57;;;16.50;99.90;;;;;;5054780;28;20250;-93
2022/09/03 07:13:15;;;;;;;1.93;1.67;;;16.50;99.90;;;;;;5070597;28;20208;-92
2022/09/03 07:15:46;;;;;;;2.13;1.57;;;16.50;99.90;;;;;;5069398;28;20232;-93
2022/09/03 07:18:17;;;;;;;2.63;1.50;;;16.40;99.90;;;;;;5066023;28;20231;-93
2022/09/03 07:20:50;;;;;;;1.60;1.50;;;16.40;99.90;;;;;;5060547;28;20196;-93
2022/09/03 07:23:20;;;;;;;1.97;1.60;;;16.20;99.90;;;;;;5059681;28;20208;-93
2022/09/03 07:25:55;;;;;;;1.40;1.30;;;16.20;99.90;;;;;;5064119;28;20197;-93
2022/09/03 07:28:30;;;;;;;2.03;1.30;;;16.20;99.90;;;;;;5060935;28;20291;-92
2022/09/03 07:31:04;;;;;;;1.40;1.30;;;16.10;99.90;;;;;;5059001;28;20727;-93
2022/09/03 07:33:36;;;;;;;1.30;1.20;;;16.20;99.90;;;;;;5059414;28;20215;-93
2022/09/03 07:36:08;;;;;;;1.57;1.47;;;16.10;99.90;;;;;;5089931;22;20267;-92
2022/09/03 07:38:39;;;;;;;2.23;1.47;;;16.10;99.90;;;;;;5040048;28;20681;-92
2022/09/03 07:41:12;;;;;;;1.60;1.37;;;16.00;99.90;;;;;;5039639;28;20229;-92
2022/09/03 07:44:04;;;;;;;1.43;1.33;;;15.90;99.90;;;;;;5040038;28;20209;-92
2022/09/03 07:46:44;;;;;;;1.20;1.10;;;15.90;99.90;;;;;;5040824;28;20263;-93
2022/09/03 07:49:16;;;;;;;1.20;1.10;;;16.00;99.90;;;;;;5039169;28;20237;-92
2022/09/03 07:51:49;;;;;;;1.33;1.00;;;15.90;99.90;;;;;;5038517;28;20205;-93
2022/09/03 07:54:22;;;;;;;2.00;1.20;;;15.80;99.90;;;;;;5038354;28;20247;-92
2022/09/03 07:56:54;;;;;;;1.43;1.00;;;15.80;99.90;;;;;;5037843;28;20260;-92
2022/09/03 07:59:28;;;;;;;1.20;1.03;;;15.80;99.90;;;;;;5038386;28;20344;-92
2022/09/03 08:01:59;;;;;;;1.40;1.00;;;15.80;99.90;;;;;;5037768;28;20205;-92
2022/09/03 08:04:32;;;;;;;0.70;0.70;;;15.80;99.90;;;;;;5037476;28;20216;-92
2022/09/03 08:07:04;;;;;;;1.40;0.90;;;15.70;99.90;;;;;;5037453;28;20234;-92
2022/09/03 08:09:35;;;;;;;0.80;0.80;;;15.70;99.90;;;;;;5037730;28;20456;-92
2022/09/03 08:12:06;;;;;;;1.00;0.90;;;15.70;99.90;;;;;;5003875;28;20209;-92
2022/09/03 08:14:39;;;;;;;1.00;0.90;;;15.60;99.90;;;;;;5038084;28;20338;-92
2022/09/03 08:17:12;;;;;;;0.73;0.73;;;15.50;99.90;;;;;;5037803;28;20232;-92
2022/09/03 08:19:44;;;;;;;1.47;0.93;;;15.50;99.90;;;;;;5038429;28;20212;-92
2022/09/03 08:22:15;;;;;;;0.77;0.70;;;15.50;99.90;;;;;;5037305;28;20274;-92
2022/09/03 08:24:47;;;;;;;0.90;0.73;;;15.50;99.90;;;;;;5037119;28;20279;-92
2022/09/03 08:27:24;;;;;;;1.07;0.97;;;15.40;99.90;;;;;;5037895;28;20204;-92
2022/09/03 08:29:57;;;;;;;0.60;0.60;;;15.40;99.90;;;;;;5037802;28;20267;-92
2022/09/03 08:32:29;;;;;;;0.90;0.80;;;15.50;99.90;;;;;;5038084;28;20209;-92
2022/09/03 08:35:00;;;;;;;2.40;1.10;;;15.50;99.90;;;;;;5040027;28;20274;-92
2022/09/03 08:37:32;;;;;;;1.10;1.00;;;15.40;99.90;;;;;;5041790;28;20282;-92
2022/09/03 08:40:05;;;;;;;0.80;0.80;;;15.40;99.90;;;;;;5041602;28;20205;-93
2022/09/03 08:42:49;;;;;;;0.87;0.87;;;15.40;99.90;;;;;;5047329;28;20219;-93
2022/09/03 08:45:23;;;;;;;5.70;1.27;;;15.40;99.90;;;;;;5041592;28;20236;-93
2022/09/03 08:48:03;;;;;;;2.63;0.93;;;15.40;99.90;;;;;;5037523;28;20259;-93
2022/09/03 08:50:39;;;;;;;1.83;1.20;;;15.40;99.90;;;;;;5037499;28;20201;-93
2022/09/03 08:53:18;;;;;;;1.33;1.20;;;15.40;99.90;;;;;;5038566;28;20266;-92
2022/09/03 08:55:54;;;;;;;1.53;1.30;;;15.40;99.90;;;;;;5037294;28;20236;-92
2022/09/03 08:58:28;;;;;;;1.40;1.30;;;15.30;99.90;;;;;;5039571;28;20216;-92
2022/09/03 09:01:07;;;;;;;1.73;1.20;;;15.30;99.90;;;;;;5039342;28;20220;-92
2022/09/03 09:03:54;;;;;;;2.13;1.40;;;15.30;99.90;;;;;;5038272;28;20240;-92
2022/09/03 09:06:34;;;;;;;3.40;1.60;;;15.30;99.90;;;;;;5039217;28;20213;-92
2022/09/03 09:09:15;;;;;;;1.67;1.50;;;15.30;99.90;;;;;;5029613;28;20279;-92
2022/09/03 09:11:57;;;;;;;2.20;1.47;;;15.30;99.90;;;;;;5058755;28;20242;-92
2022/09/03 09:14:38;;;;;;;1.53;1.40;;;15.40;99.90;;;;;;5052942;28;20271;-92
2022/09/03 09:17:31;;;;;;;2.37;1.47;;;15.30;99.90;;;;;;5036399;28;20229;-92
2022/09/03 09:20:10;;;;;;;2.10;1.53;;;15.30;99.90;;;;;;5035795;28;20210;-92
2022/09/03 09:22:45;;;;;;;2.23;1.50;;;15.30;99.90;;;;;;5035704;28;20208;-92
2022/09/03 09:25:21;;;;;;;2.23;1.30;;;15.20;99.90;;;;;;5035832;28;20217;-92
2022/09/03 09:27:57;;;;;;;2.10;1.40;;;15.30;99.90;;;;;;5036229;28;20205;-93
2022/09/03 09:30:30;;;;;;;1.70;1.50;;;15.30;99.90;;;;;;5035759;28;20216;-92
2022/09/03 09:33:04;;;;;;;1.80;1.50;;;15.40;99.90;;;;;;5035459;28;20251;-92
2022/09/03 09:35:35;;;;;;;2.07;1.40;;;15.40;99.90;;;;;;5035572;28;20223;-91
2022/09/03 09:38:06;;;;;;;2.13;1.57;;;15.40;99.90;;;;;;5036173;28;20225;-91
2022/09/03 09:40:40;;;;;;;2.43;1.47;;;15.50;99.90;;;;;;5035997;28;20270;-92
2022/09/03 09:43:16;;;;;;;2.87;1.80;;;15.50;99.90;;;;;;5037001;28;20288;-92
2022/09/03 09:45:50;;;;;;;1.47;1.37;;;15.50;99.90;;;;;;5021958;28;20236;-93
2022/09/03 09:48:30;;;;;;;1.37;1.27;;;15.60;99.90;;;;;;5038804;28;20225;-92
2022/09/03 09:51:10;;;;;;;2.07;1.43;;;15.70;99.90;;;;;;5039337;28;20668;-93
2022/09/03 09:53:41;;;;;;;1.60;1.20;;;15.70;99.90;;;;;;5037788;28;20676;-93
2022/09/03 09:56:23;;;;;;;2.27;1.40;;;15.60;99.90;;;;;;5039445;28;20774;-92
2022/09/03 09:59:04;;;;;;;1.20;1.10;;;15.60;99.90;;;;;;5039810;28;20676;-90
2022/09/03 10:01:38;;;;;;;1.43;1.10;;;15.60;99.90;;;;;;5039453;28;20201;-91
2022/09/03 10:04:26;;;;;;;1.07;0.97;;;15.60;99.90;;;;;;5038740;28;20275;-93
2022/09/03 10:07:07;;;;;;;0.93;0.87;;;15.70;99.90;;;;;;5038757;28;20716;-92
2022/09/03 10:09:38;;;;;;;2.13;1.20;;;15.70;99.90;;;;;;5038995;28;20220;-92
2022/09/03 10:12:18;;;;;;;1.20;1.10;;;15.70;99.90;;;;;;5038632;28;20201;-92
2022/09/03 10:14:54;;;;;;;1.10;1.00;;;15.70;99.90;;;;;;5038814;28;20214;-92
2022/09/03 10:17:30;;;;;;;1.30;1.07;;;15.70;99.90;;;;;;5038852;28;20279;-93
2022/09/03 10:20:35;;;;;;;1.17;1.07;;;15.70;99.90;;;;;;5041586;28;20228;-92
2022/09/03 10:23:16;;;;;;;2.00;0.90;;;15.80;99.90;;;;;;5037991;28;20217;-92
2022/09/03 10:26:05;;;;;;;1.33;1.00;;;15.80;99.90;;;;;;5021363;28;20562;-92
2022/09/03 10:28:40;;;;;;;1.17;0.93;;;15.80;99.90;;;;;;5038145;28;20316;-92
2022/09/03 10:31:23;;;;;;;1.20;1.10;;;15.80;99.90;;;;;;5038718;28;20615;-92
2022/09/03 10:34:01;;;;;;;1.23;1.13;;;15.80;99.90;;;;;;5038028;28;20212;-93
2022/09/03 10:36:41;;;;;;;1.00;1.00;;;15.70;99.90;;;;;;5038367;28;20624;-92
2022/09/03 10:39:18;;;;;;;1.13;1.03;;;15.60;99.90;;;;;;5037922;28;20213;-92
2022/09/03 10:42:05;;;;;;;0.83;0.83;;;15.80;99.90;;;;;;5017787;28;20205;-92
2022/09/03 10:44:55;;;;;;;1.10;1.00;;;15.80;99.90;;;;;;5022494;28;20275;-92
2022/09/03 10:47:59;;;;;;;1.00;0.83;;;15.80;99.90;;;;;;5037920;28;20229;-92
2022/09/03 10:50:42;;;;;;;1.43;0.93;;;15.70;99.90;;;;;;5037535;28;20209;-92
2022/09/03 10:53:40;;;;;;;0.77;0.70;;;15.80;99.90;;;;;;5036860;28;20235;-92
2022/09/03 10:56:16;;;;;;;1.30;1.00;;;15.90;99.90;;;;;;5039844;28;20221;-91
2022/09/03 10:59:11;;;;;;;1.23;0.80;;;16.00;99.90;;;;;;5037167;28;20311;-92
2022/09/03 11:01:50;;;;;;;0.60;0.60;;;16.00;99.90;;;;;;5036674;28;21099;-92
2022/09/03 11:04:32;;;;;;;1.07;0.93;;;15.90;99.90;;;;;;5037436;28;20279;-93
2022/09/03 11:07:09;;;;;;;1.00;0.80;;;16.00;99.90;;;;;;5036575;28;20223;-92
2022/09/03 11:09:49;;;;;;;0.93;0.83;;;16.00;99.90;;;;;;5037395;28;20295;-92
2022/09/03 11:12:25;;;;;;;0.93;0.80;;;16.00;99.90;;;;;;5036778;28;20266;-92
2022/09/03 11:15:04;;;;;;;1.50;0.93;;;16.00;99.90;;;;;;5037277;28;20255;-92
2022/09/03 11:17:41;;;;;;;1.03;0.93;;;15.90;99.90;;;;;;5019946;28;20248;-92
2022/09/03 11:20:17;;;;;;;0.80;0.80;;;15.80;99.90;;;;;;5037381;28;20205;-93
2022/09/03 11:22:51;;;;;;;0.87;0.87;;;15.80;99.90;;;;;;5036237;28;20204;-92
2022/09/03 11:25:30;;;;;;;1.00;0.90;;;15.80;99.90;;;;;;5037536;28;20205;-92
2022/09/03 11:28:13;;;;;;;0.80;0.77;;;15.90;99.90;;;;;;5037132;28;20235;-92
2022/09/03 11:31:01;;;;;;;1.07;1.00;;;16.00;99.90;;;;;;5039449;28;20768;-92
2022/09/03 11:33:34;;;;;;;1.13;0.83;;;16.00;99.90;;;;;;5038497;28;20280;-92
2022/09/03 11:36:08;;;;;;;0.80;0.80;;;16.10;99.90;;;;;;5039742;28;20212;-93
2022/09/03 11:38:39;;;;;;;0.93;0.73;;;15.90;99.90;;;;;;5039576;28;20233;-92
2022/09/03 11:41:25;;;;;;;0.73;0.73;;;15.90;99.90;;;;;;5041458;28;20212;-92
2022/09/03 11:43:56;;;;;;;0.50;0.50;;;15.80;99.90;;;;;;5038784;28;20252;-92
2022/09/03 11:46:33;;;;;;;0.70;0.70;;;15.90;99.90;;;;;;5019887;28;20205;-91
2022/09/03 11:49:15;;;;;;;0.50;0.50;;;16.00;99.90;;;;;;5002620;28;20221;-92
2022/09/03 11:51:56;;;;;;;0.60;0.60;;;15.90;99.90;;;;;;5020887;28;20210;-93
2022/09/03 11:54:29;;;;;;;1.33;0.60;;;15.80;99.90;;;;;;5019395;28;20209;-92
2022/09/03 11:57:15;;;;;;;0.93;0.70;;;15.80;99.90;;;;;;5018210;28;20210;-92
2022/09/03 11:59:47;;;;;;;0.70;0.70;;;15.80;99.90;;;;;;5002022;28;20561;-93
2022/09/03 12:02:27;;;;;;;0.40;0.40;;;15.70;99.90;;;;;;5016384;28;20214;-91
2022/09/03 12:05:14;;;;;;;0.77;0.70;;;15.70;99.90;;;;;;5016524;28;20721;-93
2022/09/03 12:07:59;;;;;;;0.83;0.60;;;15.70;99.90;;;;;;5016526;28;20237;-93
2022/09/03 12:10:45;;;;;;;0.80;0.80;;;15.80;99.90;;;;;;5017888;28;20205;-92
2022/09/03 12:13:39;;;;;;;0.60;0.60;;;15.90;99.90;;;;;;5016088;28;20213;-92
2022/09/03 12:16:31;;;;;;;1.37;0.80;;;15.90;99.90;;;;;;5016520;28;20209;-92
2022/09/03 12:19:07;;;;;;;0.70;0.60;;;16.00;99.90;;;;;;5016321;28;20252;-92
2022/09/03 12:21:43;;;;;;;0.60;0.60;;;15.90;99.90;;;;;;5015542;28;20618;-92
2022/09/03 12:24:14;;;;;;;0.70;0.70;;;16.00;99.90;;;;;;5016954;28;20210;-92
2022/09/03 12:26:46;;;;;;;0.60;0.57;;;16.00;99.90;;;;;;5016396;28;20630;-92
2022/09/03 12:29:26;;;;;;;0.77;0.67;;;16.10;99.90;;;;;;5016978;28;20205;-92
2022/09/03 12:32:09;;;;;;;0.60;0.60;;;16.10;99.90;;;;;;5015642;28;20661;-92
2022/09/03 12:34:40;;;;;;;1.03;0.70;;;16.00;99.90;;;;;;5016651;28;20210;-91
2022/09/03 12:37:22;;;;;;;1.07;0.70;;;16.00;99.90;;;;;;5016438;28;20283;-92
2022/09/03 12:40:22;;;;;;;0.70;0.70;;;15.70;99.90;;;;;;5021150;28;20207;-91
2022/09/03 12:42:53;;;;;;;1.27;0.70;;;15.70;99.90;;;;;;5035963;28;20212;-92
2022/09/03 12:45:49;;;;;;;0.80;0.80;;;15.80;99.90;;;;;;5036586;28;20548;-92
2022/09/03 12:48:40;;;;;;;0.80;0.60;;;15.90;99.90;;;;;;5036081;28;20204;-92
2022/09/03 12:51:13;;;;;;;1.03;0.67;;;15.60;99.90;;;;;;5039318;28;20247;-93
2022/09/03 12:54:06;;;;;;;1.07;0.70;;;15.60;99.90;;;;;;5036303;28;20204;-93
2022/09/03 12:56:40;;;;;;;0.80;0.80;;;15.60;99.90;;;;;;5036192;28;20215;-93
2022/09/03 12:59:15;;;;;;;0.80;0.70;;;15.70;99.90;;;;;;5035356;28;20255;-92
2022/09/03 13:01:51;;;;;;;2.87;0.90;;;15.60;99.90;;;;;;5035103;28;20263;-92
2022/09/03 13:04:26;;;;;;;1.03;0.93;;;15.50;99.90;;;;;;5035812;28;20300;-92
2022/09/03 13:07:04;;;;;;;1.20;1.10;;;15.50;99.90;;;;;;5036255;28;20265;-93
2022/09/03 13:09:37;;;;;;;1.07;1.03;;;15.40;99.90;;;;;;5036252;28;20266;-93
2022/09/03 13:12:21;;;;;;;1.40;1.30;;;15.40;99.90;;;;;;5034625;28;20197;-93
2022/09/03 13:14:53;;;;;;;2.27;1.20;;;15.40;99.90;;;;;;5036261;28;20243;-93
2022/09/03 13:17:53;;;;;;;1.17;1.07;;;15.40;99.90;;;;;;5036176;28;20217;-93
2022/09/03 13:20:41;;;;;;;3.20;1.30;;;15.50;99.90;;;;;;5039975;28;20588;-92
2022/09/03 13:23:31;;;;;;;1.77;1.20;;;15.50;99.90;;;;;;5039422;28;20648;-92
2022/09/03 13:26:16;;;;;;;2.13;1.33;;;15.60;99.90;;;;;;5039800;28;20201;-92
2022/09/03 13:29:13;;;;;;;1.30;1.20;;;15.60;99.90;;;;;;5039634;28;20209;-93
2022/09/03 13:31:49;;;;;;;0.97;0.97;;;15.70;99.90;;;;;;5038930;28;20212;-93
2022/09/03 13:34:26;;;;;;;1.20;1.10;;;15.70;99.90;;;;;;5039382;28;20208;-92
2022/09/03 13:37:05;;;;;;;1.37;1.20;;;15.80;99.90;;;;;;5039184;28;20283;-93
2022/09/03 13:39:41;;;;;;;2.07;1.10;;;15.60;99.90;;;;;;5039119;28;20316;-91
2022/09/03 13:42:18;;;;;;;1.43;1.20;;;15.60;99.90;;;;;;5038951;28;20223;-91
2022/09/03 13:44:53;;;;;;;2.57;1.10;;;15.60;99.90;;;;;;5038545;28;20205;-92
2022/09/03 13:47:32;;;;;;;1.50;1.10;;;15.70;99.90;;;;;;5041594;28;20209;-93
2022/09/03 13:50:22;;;;;;;2.77;1.13;;;15.60;99.90;;;;;;5039154;28;20236;-93
2022/09/03 13:52:58;;;;;;;1.73;1.10;;;15.70;99.90;;;;;;5041079;28;20209;-93
2022/09/03 13:55:36;;;;;;;1.20;1.10;;;15.80;99.90;;;;;;5044231;28;20212;-93
2022/09/03 13:58:12;;;;;;;2.00;1.10;;;15.80;99.90;;;;;;5051225;28;20271;-92
2022/09/03 14:00:48;;;;;;;1.97;1.20;;;15.90;99.90;;;;;;5051772;28;20220;-92
2022/09/03 14:03:32;;;;;;;1.00;1.00;;;16.00;99.90;;;;;;5047673;28;20212;-92
2022/09/03 14:06:12;;;;;;;0.90;0.90;;;16.00;99.90;;;;;;5042752;28;20236;-93
2022/09/03 14:08:55;;;;;;;2.17;1.27;;;16.10;99.90;;;;;;5038578;28;20262;-92
2022/09/03 14:11:32;;;;;;;1.90;1.10;;;16.20;99.90;;;;;;5037995;28;20228;-95
2022/09/03 14:14:17;;;;;;;0.97;0.80;;;16.00;99.90;;;;;;5041762;28;20212;-93
2022/09/03 14:16:55;;;;;;;1.53;0.90;;;15.90;99.90;;;;;;5020749;28;20228;-93
2022/09/03 14:19:36;;;;;;;1.10;1.00;;;15.80;99.90;;;;;;5019848;28;20299;-93
2022/09/03 14:22:15;;;;;;;1.23;0.90;;;15.60;99.90;;;;;;5018063;28;20217;-93
2022/09/03 14:24:53;;;;;;;2.00;0.97;;;15.40;99.90;;;;;;5020170;28;20292;-93
2022/09/03 14:27:27;;;;;;;1.10;0.90;;;15.40;99.90;;;;;;5022673;28;20221;-92
2022/09/03 14:30:02;;;;;;;2.60;1.00;;;15.50;99.90;;;;;;5003542;28;20646;-93
2022/09/03 14:32:49;;;;;;;1.93;0.80;;;15.60;99.90;;;;;;5019578;28;20221;-93
2022/09/03 14:35:37;;;;;;;1.20;0.93;;;15.70;99.90;;;;;;5023026;28;20205;-93
2022/09/03 14:38:48;;;;;;;0.80;0.80;;;15.50;99.90;;;;;;5022657;28;20223;-93